sensor_id;sensor_type;location;lat;lon;timestamp;pressure;altitude;pressure_sealevel;temperature;humidity
67738;BME280;54534;43.612;1.572;2022-12-29T00:01:28;99365.44;;;18.55;54.91
67738;BME280;54534;43.612;1.572;2022-12-29T00:03:53;99368.09;;;18.55;54.74
67738;BME280;54534;43.612;1.572;2022-12-29T00:06:19;99361.94;;;18.54;54.55
67738;BME280;54534;43.612;1.572;2022-12-29T00:08:44;99356.69;;;18.53;54.78
67738;BME280;54534;43.612;1.572;2022-12-29T00:11:13;99355.03;;;18.52;54.40
67738;BME280;54534;43.612;1.572;2022-12-29T00:13:38;99350.66;;;18.51;54.64
67738;BME280;54534;43.612;1.572;2022-12-29T00:16:23;99354.16;;;18.51;54.55
67738;BME280;54534;43.612;1.572;2022-12-29T00:18:49;99351.75;;;18.48;54.54
67738;BME280;54534;43.612;1.572;2022-12-29T00:21:16;99345.56;;;18.48;54.71
67738;BME280;54534;43.612;1.572;2022-12-29T00:24:01;99343.03;;;18.46;54.67
67738;BME280;54534;43.612;1.572;2022-12-29T00:26:48;99327.19;;;18.44;54.27
67738;BME280;54534;43.612;1.572;2022-12-29T00:29:33;99324.63;;;18.43;54.49
67738;BME280;54534;43.612;1.572;2022-12-29T00:32:16;99326.44;;;18.42;54.32
67738;BME280;54534;43.612;1.572;2022-12-29T00:35:00;99328.28;;;18.42;53.97
67738;BME280;54534;43.612;1.572;2022-12-29T00:37:43;99323.91;;;18.41;54.33
67738;BME280;54534;43.612;1.572;2022-12-29T00:40:27;99325.00;;;18.38;54.16
67738;BME280;54534;43.612;1.572;2022-12-29T00:43:11;99322.44;;;18.37;54.21
67738;BME280;54534;43.612;1.572;2022-12-29T00:45:55;99327.75;;;18.37;54.15
67738;BME280;54534;43.612;1.572;2022-12-29T00:48:20;99319.91;;;18.35;54.19
67738;BME280;54534;43.612;1.572;2022-12-29T00:51:04;99316.53;;;18.33;54.10
67738;BME280;54534;43.612;1.572;2022-12-29T00:53:30;99316.53;;;18.33;54.04
67738;BME280;54534;43.612;1.572;2022-12-29T00:55:55;99321.00;;;18.32;54.08
67738;BME280;54534;43.612;1.572;2022-12-29T00:58:20;99321.84;;;18.33;53.68
67738;BME280;54534;43.612;1.572;2022-12-29T01:00:46;99319.28;;;18.31;54.12
67738;BME280;54534;43.612;1.572;2022-12-29T01:03:11;99311.44;;;18.30;53.69
67738;BME280;54534;43.612;1.572;2022-12-29T01:05:37;99325.59;;;18.30;53.73
67738;BME280;54534;43.612;1.572;2022-12-29T01:08:02;99321.22;;;18.29;53.98
67738;BME280;54534;43.612;1.572;2022-12-29T01:10:28;99306.34;;;18.27;53.92
67738;BME280;54534;43.612;1.572;2022-12-29T01:12:53;99309.84;;;18.27;53.72
67738;BME280;54534;43.612;1.572;2022-12-29T01:15:19;99309.84;;;18.27;54.04
67738;BME280;54534;43.612;1.572;2022-12-29T01:17:44;99304.66;;;18.26;53.81
67738;BME280;54534;43.612;1.572;2022-12-29T01:20:10;99309.13;;;18.25;53.86
67738;BME280;54534;43.612;1.572;2022-12-29T01:22:36;99313.59;;;18.25;53.57
67738;BME280;54534;43.612;1.572;2022-12-29T01:25:02;99312.75;;;18.24;53.80
67738;BME280;54534;43.612;1.572;2022-12-29T01:27:27;99305.84;;;18.21;53.86
67738;BME280;54534;43.612;1.572;2022-12-29T01:29:53;99318.19;;;18.22;53.43
67738;BME280;54534;43.612;1.572;2022-12-29T01:32:18;99313.84;;;18.21;53.37
67738;BME280;54534;43.612;1.572;2022-12-29T01:34:44;99316.59;;;18.20;53.31
67738;BME280;54534;43.612;1.572;2022-12-29T01:37:09;99313.06;;;18.19;53.56
67738;BME280;54534;43.612;1.572;2022-12-29T01:39:34;99307.88;;;18.18;53.31
67738;BME280;54534;43.612;1.572;2022-12-29T01:42:00;99312.34;;;18.17;53.35
67738;BME280;54534;43.612;1.572;2022-12-29T01:47:22;99307.97;;;18.16;53.46
67738;BME280;54534;43.612;1.572;2022-12-29T01:49:53;99308.97;;;18.15;53.48
67738;BME280;54534;43.612;1.572;2022-12-29T01:52:22;99308.22;;;18.13;53.53
67738;BME280;54534;43.612;1.572;2022-12-29T01:54:51;99314.38;;;18.14;53.73
67738;BME280;54534;43.612;1.572;2022-12-29T01:57:25;99311.88;;;18.12;53.22
67738;BME280;54534;43.612;1.572;2022-12-29T02:00:01;99318.03;;;18.12;53.61
67738;BME280;54534;43.612;1.572;2022-12-29T02:02:28;99326.13;;;18.11;53.54
67738;BME280;54534;43.612;1.572;2022-12-29T02:04:55;99321.78;;;18.10;53.17
67738;BME280;54534;43.612;1.572;2022-12-29T02:07:24;99325.25;;;18.10;53.55
67738;BME280;54534;43.612;1.572;2022-12-29T02:09:51;99325.41;;;18.09;53.15
67738;BME280;54534;43.612;1.572;2022-12-29T02:12:19;99321.88;;;18.08;53.38
67738;BME280;54534;43.612;1.572;2022-12-29T02:14:45;99325.53;;;18.07;53.10
67738;BME280;54534;43.612;1.572;2022-12-29T02:20:11;99314.97;;;18.06;53.02
67738;BME280;54534;43.612;1.572;2022-12-29T02:23:17;99313.31;;;18.05;53.34
67738;BME280;54534;43.612;1.572;2022-12-29T02:26:29;99316.91;;;18.04;53.22
67738;BME280;54534;43.612;1.572;2022-12-29T02:40:03;99307.47;;;17.99;53.03
67738;BME280;54534;43.612;1.572;2022-12-29T02:42:42;99308.53;;;17.97;53.02
67738;BME280;54534;43.612;1.572;2022-12-29T02:45:21;99305.88;;;17.97;52.96
67738;BME280;54534;43.612;1.572;2022-12-29T02:47:56;99305.88;;;17.97;53.00
67738;BME280;54534;43.612;1.572;2022-12-29T02:50:35;99310.38;;;17.96;52.81
67738;BME280;54534;43.612;1.572;2022-12-29T02:53:06;99311.19;;;17.97;53.29
67738;BME280;54534;43.612;1.572;2022-12-29T02:55:32;99302.50;;;17.95;52.91
67738;BME280;54534;43.612;1.572;2022-12-29T03:07:03;99288.47;;;17.93;53.00
67738;BME280;54534;43.612;1.572;2022-12-29T03:14:59;99275.41;;;17.89;52.93
67738;BME280;54534;43.612;1.572;2022-12-29T03:18:04;99275.53;;;17.88;52.74
67738;BME280;54534;43.612;1.572;2022-12-29T03:20:42;99271.88;;;17.89;53.11
67738;BME280;54534;43.612;1.572;2022-12-29T03:23:11;99267.66;;;17.86;53.18
67738;BME280;54534;43.612;1.572;2022-12-29T03:25:46;99267.66;;;17.86;53.09
67738;BME280;54534;43.612;1.572;2022-12-29T03:28:21;99271.16;;;17.87;52.76
67738;BME280;54534;43.612;1.572;2022-12-29T03:30:48;99272.97;;;17.86;52.79
67738;BME280;54534;43.612;1.572;2022-12-29T03:33:17;99266.81;;;17.86;52.59
67738;BME280;54534;43.612;1.572;2022-12-29T03:35:45;99268.63;;;17.85;53.06
67738;BME280;54534;43.612;1.572;2022-12-29T03:38:24;99273.09;;;17.85;53.04
67738;BME280;54534;43.612;1.572;2022-12-29T03:40:55;99279.38;;;17.84;52.62
67738;BME280;54534;43.612;1.572;2022-12-29T03:43:21;99269.72;;;17.83;53.04
67738;BME280;54534;43.612;1.572;2022-12-29T03:45:47;99281.22;;;17.83;52.45
67738;BME280;54534;43.612;1.572;2022-12-29T03:48:13;99273.22;;;17.83;52.94
67738;BME280;54534;43.612;1.572;2022-12-29T03:50:38;99278.56;;;17.83;52.66
67738;BME280;54534;43.612;1.572;2022-12-29T03:53:04;99270.66;;;17.82;52.76
67738;BME280;54534;43.612;1.572;2022-12-29T03:55:29;99269.81;;;17.81;52.75
67738;BME280;54534;43.612;1.572;2022-12-29T03:57:54;99283.13;;;17.81;52.49
67738;BME280;54534;43.612;1.572;2022-12-29T04:00:20;99275.13;;;17.81;52.96
67738;BME280;54534;43.612;1.572;2022-12-29T04:02:46;99284.09;;;17.80;52.99
67738;BME280;54534;43.612;1.572;2022-12-29T04:05:11;99278.78;;;17.80;52.71
67738;BME280;54534;43.612;1.572;2022-12-29T04:07:37;99279.72;;;17.79;52.79
67738;BME280;54534;43.612;1.572;2022-12-29T04:10:02;99284.09;;;17.80;52.81
67738;BME280;54534;43.612;1.572;2022-12-29T04:12:28;99284.19;;;17.78;52.45
67738;BME280;54534;43.612;1.572;2022-12-29T04:14:53;99284.31;;;17.77;52.76
67738;BME280;54534;43.612;1.572;2022-12-29T04:17:19;99281.66;;;17.77;52.81
67738;BME280;54534;43.612;1.572;2022-12-29T04:19:44;99284.31;;;17.77;52.98
67738;BME280;54534;43.612;1.572;2022-12-29T04:22:10;99279.94;;;17.76;52.44
67738;BME280;54534;43.612;1.572;2022-12-29T04:24:36;99277.28;;;17.76;52.49
67738;BME280;54534;43.612;1.572;2022-12-29T04:27:02;99282.63;;;17.76;52.23
67738;BME280;54534;43.612;1.572;2022-12-29T04:29:27;99286.25;;;17.75;52.75
67738;BME280;54534;43.612;1.572;2022-12-29T04:31:53;99283.59;;;17.75;52.40
67738;BME280;54534;43.612;1.572;2022-12-29T04:34:18;99287.94;;;17.76;52.79
67738;BME280;54534;43.612;1.572;2022-12-29T04:36:44;99286.25;;;17.75;52.72
67738;BME280;54534;43.612;1.572;2022-12-29T04:39:09;99279.22;;;17.74;52.72
67738;BME280;54534;43.612;1.572;2022-12-29T04:41:34;99270.41;;;17.73;52.40
67738;BME280;54534;43.612;1.572;2022-12-29T04:44:00;99276.69;;;17.72;52.31
67738;BME280;54534;43.612;1.572;2022-12-29T04:46:25;99285.41;;;17.74;52.74
67738;BME280;54534;43.612;1.572;2022-12-29T04:48:51;99281.16;;;17.72;52.64
67738;BME280;54534;43.612;1.572;2022-12-29T04:51:16;99286.47;;;17.72;52.69
67738;BME280;54534;43.612;1.572;2022-12-29T04:53:42;99286.47;;;17.72;52.80
67738;BME280;54534;43.612;1.572;2022-12-29T04:56:08;99279.47;;;17.71;52.58
67738;BME280;54534;43.612;1.572;2022-12-29T04:58:34;99275.00;;;17.71;52.30
67738;BME280;54534;43.612;1.572;2022-12-29T05:01:00;99274.28;;;17.69;52.48
67738;BME280;54534;43.612;1.572;2022-12-29T05:03:25;99275.13;;;17.70;52.66
67738;BME280;54534;43.612;1.572;2022-12-29T05:05:53;99283.94;;;17.70;52.47
67738;BME280;54534;43.612;1.572;2022-12-29T05:08:20;99287.56;;;17.69;52.75
67738;BME280;54534;43.612;1.572;2022-12-29T05:10:45;99293.84;;;17.68;52.67
67738;BME280;54534;43.612;1.572;2022-12-29T05:13:11;99307.13;;;17.68;52.65
67738;BME280;54534;43.612;1.572;2022-12-29T05:15:36;99310.63;;;17.68;52.60
67738;BME280;54534;43.612;1.572;2022-12-29T05:18:01;99327.56;;;17.67;52.51
67738;BME280;54534;43.612;1.572;2022-12-29T05:20:27;99329.38;;;17.67;52.30
67738;BME280;54534;43.612;1.572;2022-12-29T05:22:52;99330.34;;;17.66;52.72
67738;BME280;54534;43.612;1.572;2022-12-29T05:25:18;99342.69;;;17.67;52.48
67738;BME280;54534;43.612;1.572;2022-12-29T05:27:43;99339.28;;;17.65;52.52
67738;BME280;54534;43.612;1.572;2022-12-29T05:30:09;99333.97;;;17.65;52.55
67738;BME280;54534;43.612;1.572;2022-12-29T05:32:34;99339.38;;;17.63;52.15
67738;BME280;54534;43.612;1.572;2022-12-29T05:35:00;99340.97;;;17.66;52.28
67738;BME280;54534;43.612;1.572;2022-12-29T05:37:25;99343.75;;;17.64;52.36
67738;BME280;54534;43.612;1.572;2022-12-29T05:39:51;99345.56;;;17.64;52.56
67738;BME280;54534;43.612;1.572;2022-12-29T05:42:16;99339.38;;;17.63;52.61
67738;BME280;54534;43.612;1.572;2022-12-29T05:44:42;99338.53;;;17.63;52.49
67738;BME280;54534;43.612;1.572;2022-12-29T05:47:07;99344.72;;;17.63;52.37
67738;BME280;54534;43.612;1.572;2022-12-29T05:49:32;99343.03;;;17.62;52.33
67738;BME280;54534;43.612;1.572;2022-12-29T05:51:58;99356.31;;;17.62;52.52
67738;BME280;54534;43.612;1.572;2022-12-29T05:54:23;99363.44;;;17.62;52.58
67738;BME280;54534;43.612;1.572;2022-12-29T05:56:49;99366.09;;;17.62;52.47
67738;BME280;54534;43.612;1.572;2022-12-29T05:59:14;99364.41;;;17.61;52.47
67738;BME280;54534;43.612;1.572;2022-12-29T06:01:40;99366.09;;;17.62;52.29
67738;BME280;54534;43.612;1.572;2022-12-29T06:04:05;99358.22;;;17.60;52.52
67738;BME280;54534;43.612;1.572;2022-12-29T06:06:30;99368.84;;;17.60;52.14
67738;BME280;54534;43.612;1.572;2022-12-29T06:08:56;99368.00;;;17.60;52.32
67738;BME280;54534;43.612;1.572;2022-12-29T06:11:21;99357.38;;;17.60;52.39
67738;BME280;54534;43.612;1.572;2022-12-29T06:13:46;99358.34;;;17.59;52.37
67738;BME280;54534;43.612;1.572;2022-12-29T06:16:12;99352.06;;;17.60;52.25
67738;BME280;54534;43.612;1.572;2022-12-29T06:18:38;99353.03;;;17.59;52.49
67738;BME280;54534;43.612;1.572;2022-12-29T06:21:04;99345.91;;;17.59;52.26
67738;BME280;54534;43.612;1.572;2022-12-29T06:23:30;99342.41;;;17.59;52.28
67738;BME280;54534;43.612;1.572;2022-12-29T06:25:56;99342.41;;;17.59;52.15
67738;BME280;54534;43.612;1.572;2022-12-29T06:28:22;99345.06;;;17.59;52.04
67738;BME280;54534;43.612;1.572;2022-12-29T06:30:48;99337.06;;;17.59;51.92
67738;BME280;54534;43.612;1.572;2022-12-29T06:33:14;99334.41;;;17.59;52.12
67738;BME280;54534;43.612;1.572;2022-12-29T06:35:39;99335.28;;;17.59;51.87
67738;BME280;54534;43.612;1.572;2022-12-29T06:38:06;99331.75;;;17.59;52.02
67738;BME280;54534;43.612;1.572;2022-12-29T06:40:32;99322.06;;;17.58;52.00
67738;BME280;54534;43.612;1.572;2022-12-29T06:42:57;99322.06;;;17.58;52.31
67738;BME280;54534;43.612;1.572;2022-12-29T06:45:22;99322.06;;;17.58;52.51
67738;BME280;54534;43.612;1.572;2022-12-29T06:47:48;99324.72;;;17.58;52.25
67738;BME280;54534;43.612;1.572;2022-12-29T06:50:13;99330.91;;;17.58;52.48
67738;BME280;54534;43.612;1.572;2022-12-29T06:52:39;99322.06;;;17.58;52.16
67738;BME280;54534;43.612;1.572;2022-12-29T06:55:04;99317.63;;;17.58;52.06
67738;BME280;54534;43.612;1.572;2022-12-29T06:57:30;99326.53;;;17.57;52.22
67738;BME280;54534;43.612;1.572;2022-12-29T06:59:55;99313.25;;;17.57;52.58
67738;BME280;54534;43.612;1.572;2022-12-29T07:02:21;99311.44;;;17.58;52.57
67738;BME280;54534;43.612;1.572;2022-12-29T07:04:47;99315.09;;;17.56;52.19
67738;BME280;54534;43.612;1.572;2022-12-29T07:07:12;99308.91;;;17.56;52.32
67738;BME280;54534;43.612;1.572;2022-12-29T07:09:37;99315.19;;;17.55;52.48
67738;BME280;54534;43.612;1.572;2022-12-29T07:12:03;99321.22;;;17.57;52.16
67738;BME280;54534;43.612;1.572;2022-12-29T07:14:29;99318.69;;;17.55;52.54
67738;BME280;54534;43.612;1.572;2022-12-29T07:16:54;99319.53;;;17.56;52.27
67738;BME280;54534;43.612;1.572;2022-12-29T07:19:19;99317.84;;;17.55;52.30
67738;BME280;54534;43.612;1.572;2022-12-29T07:21:45;99309.84;;;17.55;52.73
67738;BME280;54534;43.612;1.572;2022-12-29T07:24:10;99309.84;;;17.55;52.54
67738;BME280;54534;43.612;1.572;2022-12-29T07:26:36;99305.41;;;17.55;52.58
67738;BME280;54534;43.612;1.572;2022-12-29T07:29:03;99308.06;;;17.55;52.71
67738;BME280;54534;43.612;1.572;2022-12-29T07:31:28;99309.84;;;17.55;52.79
67738;BME280;54534;43.612;1.572;2022-12-29T07:33:54;99322.19;;;17.56;52.71
67738;BME280;54534;43.612;1.572;2022-12-29T07:36:19;99312.50;;;17.55;52.30
67738;BME280;54534;43.612;1.572;2022-12-29T07:38:45;99321.47;;;17.54;52.29
67738;BME280;54534;43.612;1.572;2022-12-29T07:41:10;99325.81;;;17.55;52.28
67738;BME280;54534;43.612;1.572;2022-12-29T07:43:35;99322.28;;;17.54;52.24
67738;BME280;54534;43.612;1.572;2022-12-29T07:46:01;99324.13;;;17.54;52.38
67738;BME280;54534;43.612;1.572;2022-12-29T07:48:26;99326.53;;;17.57;52.45
67738;BME280;54534;43.612;1.572;2022-12-29T07:50:52;99331.84;;;17.57;52.81
67738;BME280;54534;43.612;1.572;2022-12-29T07:53:17;99333.56;;;17.58;52.63
67738;BME280;54534;43.612;1.572;2022-12-29T07:55:43;99337.94;;;17.59;52.43
67738;BME280;54534;43.612;1.572;2022-12-29T07:58:08;99337.72;;;17.62;52.40
67738;BME280;54534;43.612;1.572;2022-12-29T08:00:34;99347.38;;;17.63;52.70
67738;BME280;54534;43.612;1.572;2022-12-29T08:02:59;99349.81;;;17.66;52.57
67738;BME280;54534;43.612;1.572;2022-12-29T08:05:25;99349.81;;;17.66;52.84
67738;BME280;54534;43.612;1.572;2022-12-29T08:07:50;99344.34;;;17.68;52.79
67738;BME280;54534;43.612;1.572;2022-12-29T08:10:16;99353.91;;;17.71;52.67
67738;BME280;54534;43.612;1.572;2022-12-29T08:12:42;99346.69;;;17.73;52.74
67738;BME280;54534;43.612;1.572;2022-12-29T08:15:10;99350.94;;;17.75;52.32
67738;BME280;54534;43.612;1.572;2022-12-29T08:17:36;99343.78;;;17.76;52.24
67738;BME280;54534;43.612;1.572;2022-12-29T08:20:02;99344.63;;;17.76;52.17
67738;BME280;54534;43.612;1.572;2022-12-29T08:22:27;99337.28;;;17.80;52.10
67738;BME280;54534;43.612;1.572;2022-12-29T08:24:53;99335.47;;;17.81;52.05
67738;BME280;54534;43.612;1.572;2022-12-29T08:27:18;99336.22;;;17.83;52.14
67738;BME280;54534;43.612;1.572;2022-12-29T08:29:44;99339.59;;;17.85;52.42
67738;BME280;54534;43.612;1.572;2022-12-29T08:32:10;99333.41;;;17.84;52.32
67738;BME280;54534;43.612;1.572;2022-12-29T08:34:35;99342.13;;;17.86;52.33
67738;BME280;54534;43.612;1.572;2022-12-29T08:37:01;99343.84;;;17.87;52.10
67738;BME280;54534;43.612;1.572;2022-12-29T08:39:26;99344.56;;;17.89;52.10
67738;BME280;54534;43.612;1.572;2022-12-29T08:41:52;99349.88;;;17.89;52.46
67738;BME280;54534;43.612;1.572;2022-12-29T08:44:17;99340.81;;;17.92;51.94
67738;BME280;54534;43.612;1.572;2022-12-29T08:46:43;99350.59;;;17.92;52.00
67738;BME280;54534;43.612;1.572;2022-12-29T08:49:08;99345.06;;;17.95;52.13
67738;BME280;54534;43.612;1.572;2022-12-29T08:51:34;99338.06;;;17.94;52.46
67738;BME280;54534;43.612;1.572;2022-12-29T08:53:59;99335.28;;;17.95;52.38
67738;BME280;54534;43.612;1.572;2022-12-29T08:56:25;99341.44;;;17.96;52.36
67738;BME280;54534;43.612;1.572;2022-12-29T08:58:52;99340.59;;;17.95;52.13
67738;BME280;54534;43.612;1.572;2022-12-29T09:01:18;99352.94;;;17.96;51.86
67738;BME280;54534;43.612;1.572;2022-12-29T09:03:43;99344.84;;;17.98;52.13
67738;BME280;54534;43.612;1.572;2022-12-29T09:06:08;99351.00;;;17.98;52.22
67738;BME280;54534;43.612;1.572;2022-12-29T09:08:35;99357.19;;;17.99;52.26
67738;BME280;54534;43.612;1.572;2022-12-29T09:11:09;99366.13;;;17.98;51.76
67738;BME280;54534;43.612;1.572;2022-12-29T09:13:35;99356.31;;;17.98;52.05
67738;BME280;54534;43.612;1.572;2022-12-29T09:16:00;99356.31;;;17.98;51.99
67738;BME280;54534;43.612;1.572;2022-12-29T09:18:26;99355.34;;;17.99;52.12
67738;BME280;54534;43.612;1.572;2022-12-29T09:20:59;99345.56;;;18.00;51.81
67738;BME280;54534;43.612;1.572;2022-12-29T09:23:24;99342.91;;;18.00;52.05
67738;BME280;54534;43.612;1.572;2022-12-29T09:25:50;99343.75;;;18.00;52.15
67738;BME280;54534;43.612;1.572;2022-12-29T09:28:16;99344.59;;;18.01;51.86
67738;BME280;54534;43.612;1.572;2022-12-29T09:30:41;99331.19;;;18.03;51.71
67738;BME280;54534;43.612;1.572;2022-12-29T09:33:14;99335.69;;;18.02;51.89
67738;BME280;54534;43.612;1.572;2022-12-29T09:35:43;99332.03;;;18.03;52.01
67738;BME280;54534;43.612;1.572;2022-12-29T09:38:09;99325.84;;;18.03;51.73
67738;BME280;54534;43.612;1.572;2022-12-29T09:40:35;99321.28;;;18.05;51.99
67738;BME280;54534;43.612;1.572;2022-12-29T09:43:29;99314.13;;;18.05;51.72
67738;BME280;54534;43.612;1.572;2022-12-29T09:46:25;99308.81;;;18.05;52.02
67738;BME280;54534;43.612;1.572;2022-12-29T09:51:25;99316.78;;;18.05;51.61
67738;BME280;54534;43.612;1.572;2022-12-29T09:53:58;99322.88;;;18.07;51.96
67738;BME280;54534;43.612;1.572;2022-12-29T09:56:26;99322.00;;;18.07;51.89
67738;BME280;54534;43.612;1.572;2022-12-29T09:59:14;99316.69;;;18.07;51.58
67738;BME280;54534;43.612;1.572;2022-12-29T10:01:58;99320.31;;;18.06;51.86
67738;BME280;54534;43.612;1.572;2022-12-29T10:04:27;99311.47;;;18.05;51.82
67738;BME280;54534;43.612;1.572;2022-12-29T10:07:08;99302.41;;;18.08;51.74
67738;BME280;54534;43.612;1.572;2022-12-29T10:09:52;99297.22;;;18.06;51.67
67738;BME280;54534;43.612;1.572;2022-12-29T10:15:43;99303.25;;;18.08;52.02
67738;BME280;54534;43.612;1.572;2022-12-29T10:21:08;99306.63;;;18.10;51.93
67738;BME280;54534;43.612;1.572;2022-12-29T10:23:46;99300.59;;;18.08;52.18
67738;BME280;54534;43.612;1.572;2022-12-29T10:26:17;99295.16;;;18.10;52.00
67738;BME280;54534;43.612;1.572;2022-12-29T10:28:51;99294.41;;;18.08;51.89
67738;BME280;54534;43.612;1.572;2022-12-29T10:31:23;99296.84;;;18.11;51.96
67738;BME280;54534;43.612;1.572;2022-12-29T10:33:57;99293.34;;;18.10;52.12
67738;BME280;54534;43.612;1.572;2022-12-29T10:36:41;99292.38;;;18.11;52.15
67738;BME280;54534;43.612;1.572;2022-12-29T10:41:50;99281.75;;;18.11;52.30
67738;BME280;54534;43.612;1.572;2022-12-29T10:44:17;99282.59;;;18.12;52.02
67738;BME280;54534;43.612;1.572;2022-12-29T10:46:54;99275.56;;;18.11;52.02
67738;BME280;54534;43.612;1.572;2022-12-29T10:49:21;99279.94;;;18.12;51.91
67738;BME280;54534;43.612;1.572;2022-12-29T10:51:48;99285.13;;;18.14;51.78
67738;BME280;54534;43.612;1.572;2022-12-29T10:54:21;99291.28;;;18.14;51.90
67738;BME280;54534;43.612;1.572;2022-12-29T10:56:52;99286.81;;;18.15;51.94
67738;BME280;54534;43.612;1.572;2022-12-29T10:59:22;99286.69;;;18.16;51.90
67738;BME280;54534;43.612;1.572;2022-12-29T11:06:53;99284.03;;;18.16;51.78
67738;BME280;54534;43.612;1.572;2022-12-29T11:09:25;99275.09;;;18.17;51.83
67738;BME280;54534;43.612;1.572;2022-12-29T11:11:52;99273.28;;;18.18;51.84
67738;BME280;54534;43.612;1.572;2022-12-29T11:14:26;99275.94;;;18.18;52.02
67738;BME280;54534;43.612;1.572;2022-12-29T11:17:03;99276.66;;;18.20;51.56
67738;BME280;54534;43.612;1.572;2022-12-29T11:19:31;99266.13;;;18.18;51.91
67738;BME280;54534;43.612;1.572;2022-12-29T11:22:14;99267.84;;;18.19;52.04
67738;BME280;54534;43.612;1.572;2022-12-29T11:24:47;99274.00;;;18.20;52.03
67738;BME280;54534;43.612;1.572;2022-12-29T11:27:23;99267.84;;;18.19;51.84
67738;BME280;54534;43.612;1.572;2022-12-29T11:29:51;99260.72;;;18.20;52.09
67738;BME280;54534;43.612;1.572;2022-12-29T11:32:26;99258.94;;;18.20;51.74
67738;BME280;54534;43.612;1.572;2022-12-29T11:34:51;99255.38;;;18.20;51.98
67738;BME280;54534;43.612;1.572;2022-12-29T11:37:31;99247.28;;;18.21;52.03
67738;BME280;54534;43.612;1.572;2022-12-29T11:42:40;99243.03;;;18.19;51.86
67738;BME280;54534;43.612;1.572;2022-12-29T11:47:35;99240.16;;;18.22;52.21
67738;BME280;54534;43.612;1.572;2022-12-29T11:50:05;99243.56;;;18.24;52.13
67738;BME280;54534;43.612;1.572;2022-12-29T11:52:34;99232.06;;;18.23;52.24
67738;BME280;54534;43.612;1.572;2022-12-29T11:55:03;99226.72;;;18.23;52.89
67738;BME280;54534;43.612;1.572;2022-12-29T11:57:32;99236.41;;;18.25;52.89
67738;BME280;54534;43.612;1.572;2022-12-29T12:00:01;99234.59;;;18.25;52.66
67738;BME280;54534;43.612;1.572;2022-12-29T12:02:42;99229.16;;;18.27;52.96
67738;BME280;54534;43.612;1.572;2022-12-29T12:07:44;99211.38;;;18.27;52.82
67738;BME280;54534;43.612;1.572;2022-12-29T12:10:16;99206.06;;;18.27;52.79
67738;BME280;54534;43.612;1.572;2022-12-29T12:15:40;99181.16;;;18.28;52.58
67738;BME280;54534;43.612;1.572;2022-12-29T12:18:12;99190.09;;;18.27;52.66
67738;BME280;54534;43.612;1.572;2022-12-29T12:20:54;99184.75;;;18.27;52.62
67738;BME280;54534;43.612;1.572;2022-12-29T12:23:31;99188.28;;;18.28;52.82
67738;BME280;54534;43.612;1.572;2022-12-29T12:26:11;99189.00;;;18.30;52.67
67738;BME280;54534;43.612;1.572;2022-12-29T12:34:08;99166.84;;;18.29;52.90
67738;BME280;54534;43.612;1.572;2022-12-29T12:36:58;99164.91;;;18.31;52.56
67738;BME280;54534;43.612;1.572;2022-12-29T12:42:56;99151.50;;;18.33;52.83
67738;BME280;54534;43.612;1.572;2022-12-29T12:50:52;99146.88;;;18.35;52.75
67738;BME280;54534;43.612;1.572;2022-12-29T12:56:22;99135.13;;;18.38;52.80
67738;BME280;54534;43.612;1.572;2022-12-29T12:58:55;99129.81;;;18.38;52.92
67738;BME280;54534;43.612;1.572;2022-12-29T13:07:07;99120.03;;;18.38;52.65
67738;BME280;54534;43.612;1.572;2022-12-29T13:09:48;99119.88;;;18.40;53.04
67738;BME280;54534;43.612;1.572;2022-12-29T13:12:49;99116.25;;;18.41;52.54
67738;BME280;54534;43.612;1.572;2022-12-29T13:18:58;99120.63;;;18.42;52.63
67738;BME280;54534;43.612;1.572;2022-12-29T13:22:07;99105.75;;;18.39;53.09
67738;BME280;54534;43.612;1.572;2022-12-29T13:32:38;99125.97;;;18.42;52.71
67738;BME280;54534;43.612;1.572;2022-12-29T13:37:48;99135.63;;;18.43;52.56
67738;BME280;54534;43.612;1.572;2022-12-29T13:40:19;99140.94;;;18.43;52.71
67738;BME280;54534;43.612;1.572;2022-12-29T13:42:48;99142.63;;;18.44;52.97
67738;BME280;54534;43.612;1.572;2022-12-29T13:45:17;99139.97;;;18.44;52.62
67738;BME280;54534;43.612;1.572;2022-12-29T13:48:00;99139.00;;;18.45;52.52
67738;BME280;54534;43.612;1.572;2022-12-29T13:50:29;99140.69;;;18.46;52.74
67738;BME280;54534;43.612;1.572;2022-12-29T13:53:21;99140.69;;;18.46;53.01
67738;BME280;54534;43.612;1.572;2022-12-29T13:55:54;99146.03;;;18.46;52.51
67738;BME280;54534;43.612;1.572;2022-12-29T13:58:50;99146.03;;;18.46;52.54
67738;BME280;54534;43.612;1.572;2022-12-29T14:03:54;99143.34;;;18.46;52.86
67738;BME280;54534;43.612;1.572;2022-12-29T14:06:30;99152.19;;;18.47;53.03
67738;BME280;54534;43.612;1.572;2022-12-29T14:09:02;99152.19;;;18.47;52.86
67738;BME280;54534;43.612;1.572;2022-12-29T14:13:56;99142.41;;;18.47;52.73
67738;BME280;54534;43.612;1.572;2022-12-29T14:18:54;99138.75;;;18.48;52.84
67738;BME280;54534;43.612;1.572;2022-12-29T14:21:24;99130.75;;;18.48;52.69
67738;BME280;54534;43.612;1.572;2022-12-29T14:24:32;99130.75;;;18.48;52.95
67738;BME280;54534;43.612;1.572;2022-12-29T14:26:46;99124.47;;;18.49;52.81
67738;BME280;54534;43.612;1.572;2022-12-29T14:34:51;99142.13;;;18.50;52.63
67738;BME280;54534;43.612;1.572;2022-12-29T14:40:23;99154.47;;;18.51;52.57
67738;BME280;54534;43.612;1.572;2022-12-29T14:42:52;99146.63;;;18.50;52.53
67738;BME280;54534;43.612;1.572;2022-12-29T14:47:46;99143.81;;;18.51;52.44
67738;BME280;54534;43.612;1.572;2022-12-29T14:53:02;99148.31;;;18.51;52.47
67738;BME280;54534;43.612;1.572;2022-12-29T14:55:38;99152.78;;;18.50;52.70
67738;BME280;54534;43.612;1.572;2022-12-29T14:58:06;99149.16;;;18.51;52.57
67738;BME280;54534;43.612;1.572;2022-12-29T15:00:38;99147.44;;;18.50;52.18
67738;BME280;54534;43.612;1.572;2022-12-29T15:03:20;99141.16;;;18.51;52.44
67738;BME280;54534;43.612;1.572;2022-12-29T15:05:51;99133.19;;;18.51;52.46
67738;BME280;54534;43.612;1.572;2022-12-29T15:08:21;99135.84;;;18.51;52.40
67738;BME280;54534;43.612;1.572;2022-12-29T15:10:56;99133.19;;;18.51;52.39